Data for 10/09/2017

Time Sea-Level Adjusted Pressure Absolute Pressure Temperature Relative Humidity Dew Point   
(mb) (inHg) (mb) (inHg) (C) (F) (%) (C) (F)
00:05 1025 30.27 854 25.22 1.2 34.1 81 -1.8 28.8
00:10 1025 30.27 854 25.22 1 33.8 81 -1.9 28.5
00:15 1025 30.27 854 25.22 1 33.7 81 -1.9 28.5
00:20 1025 30.27 854 25.22 1.1 33.9 82 -1.7 29
00:25 1025 30.27 854 25.22 1 33.8 84 -1.5 29.3
00:30 1025 30.27 854 25.22 0.9 33.6 85 -1.4 29.4
00:35 1025 30.27 854 25.22 0.8 33.5 85 -1.4 29.4
00:40 1025 30.27 854 25.22 0.8 33.4 85 -1.5 29.3
00:45 1025 30.27 854 25.22 0.7 33.3 85 -1.6 29.2
00:50 1025 30.27 854 25.22 0.7 33.3 84 -1.7 29
00:55 1025 30.27 854 25.22 0.8 33.4 84 -1.6 29.1
01:00 1025 30.27 854 25.22 0.8 33.4 83 -1.8 28.7
01:05 1025 30.27 854 25.22 0.8 33.5 82 -1.9 28.6
01:10 1025 30.27 854 25.22 0.9 33.6 82 -1.8 28.8
01:15 1025 30.27 854 25.22 0.9 33.7 82 -1.8 28.8
01:20 1025 30.27 854 25.22 1 33.8 83 -1.7 29
01:25 1025 30.27 854 25.22 0.9 33.7 81 -1.9 28.6
01:30 1025 30.27 854 25.22 1 33.8 81 -1.8 28.7
01:35 1025 30.27 854 25.22 1.1 33.9 81 -1.8 28.8
01:40 1025 30.27 854 25.22 1.1 33.9 83 -1.4 29.4
01:45 1025 30.27 854 25.22 1 33.8 84 -1.4 29.5
01:50 1025 30.27 854 25.22 1 33.8 84 -1.4 29.4
01:55 1025 30.27 854 25.22 0.9 33.6 84 -1.5 29.3
02:00 1025 30.27 854 25.22 0.9 33.6 84 -1.5 29.2
02:05 1025 30.27 854 25.22 0.9 33.6 84 -1.6 29.2
02:10 1025 30.27 854 25.22 0.9 33.6 84 -1.6 29.2
02:15 1025 30.27 854 25.22 0.9 33.6 82 -1.8 28.8
02:20 1025 30.27 854 25.22 1 33.8 82 -1.8 28.8
02:25 1025 30.27 854 25.22 1.1 34 80 -1.9 28.6
02:30 1025 30.27 854 25.22 1.2 34.1 78 -2.3 27.9
02:35 1025 30.27 854 25.22 1.2 34.1 76 -2.6 27.4
02:40 1025 30.27 854 25.22 1.2 34.1 75 -2.7 27.1
02:45 1025 30.27 854 25.22 1.2 34.1 76 -2.7 27.2
02:50 1025 30.27 854 25.22 1.2 34.2 75 -2.7 27.1
02:55 1025 30.27 854 25.22 1.2 34.2 76 -2.6 27.3
03:00 1025 30.27 854 25.22 1.1 33.9 79 -2.1 28.2
03:05 1025 30.27 854 25.22 0.8 33.5 81 -2.1 28.2
03:10 1025 30.27 854 25.22 0.8 33.4 80 -2.2 28
03:15 1025 30.27 854 25.22 0.9 33.5 79 -2.4 27.6
03:20 1025 30.27 854 25.22 0.9 33.7 77 -2.7 27.2
03:25 1025 30.27 854 25.22 0.8 33.5 76 -2.9 26.9
03:30 1025 30.27 854 25.22 0.8 33.4 76 -2.9 26.8
03:35 1025 30.27 854 25.22 0.7 33.3 77 -2.9 26.8
03:40 1025 30.27 854 25.22 0.7 33.3 76 -3 26.5
03:45 1025 30.27 854 25.22 0.7 33.3 77 -2.9 26.8
03:50 1025 30.27 854 25.22 0.7 33.3 77 -2.9 26.7
03:55 1025 30.27 854 25.22 0.7 33.3 79 -2.5 27.6
04:00 1025 30.27 854 25.22 0.6 33.1 77 -3 26.7
04:05 1025 30.27 854 25.22 0.7 33.3 79 -2.6 27.4
04:10 1025 30.27 854 25.22 0.8 33.4 78 -2.7 27.2
04:15 1025 30.27 854 25.22 0.8 33.5 77 -2.8 27
04:20 1025 30.27 854 25.22 0.8 33.5 76 -2.9 26.8
04:25 1025 30.27 855 25.25 0.7 33.3 79 -2.6 27.3
04:30 1025 30.27 855 25.25 0.5 32.9 80 -2.5 27.5
04:35 1025 30.27 855 25.25 0.3 32.5 82 -2.4 27.6
04:40 1026 30.3 855 25.25 0.1 32.2 84 -2.3 27.9
04:45 1026 30.3 855 25.25 -0.1 31.9 85 -2.2 28
04:50 1026 30.3 855 25.25 -0.3 31.5 84 -2.6 27.3
04:55 1026 30.3 855 25.25 -0.4 31.3 83 -2.9 26.8
05:00 1026 30.3 855 25.25 -0.4 31.2 83 -3 26.6
05:05 1026 30.3 855 25.25 -0.4 31.2 81 -3.2 26.2
05:10 1026 30.3 855 25.25 -0.4 31.4 81 -3.3 26.1
05:15 1026 30.3 855 25.25 -0.3 31.4 81 -3.2 26.2
05:20 1026 30.3 855 25.25 -0.3 31.4 80 -3.4 26
05:25 1026 30.3 855 25.25 -0.4 31.3 80 -3.4 25.9
05:30 1026 30.3 855 25.25 -0.5 31.2 81 -3.4 25.9
05:35 1026 30.3 855 25.25 -0.6 31 81 -3.4 25.8
05:40 1026 30.3 855 25.25 -0.8 30.6 82 -3.5 25.7
05:45 1026 30.3 855 25.25 -1 30.2 84 -3.4 26
05:50 1026 30.3 855 25.25 -1.1 30.1 86 -3.1 26.4
05:55 1026 30.3 855 25.25 -1.1 30 88 -2.9 26.8
06:00 1026 30.3 855 25.25 -1.2 29.8 88 -2.9 26.7
06:05 1026 30.3 855 25.25 -1.2 29.8 89 -2.8 27
06:10 1026 30.3 855 25.25 -1.2 29.8 89 -2.7 27.1
06:15 1026 30.3 855 25.25 -1.3 29.7 89 -2.8 26.9
06:20 1026 30.3 855 25.25 -1.3 29.7 89 -2.9 26.7
06:25 1026 30.3 855 25.25 -1.2 29.8 89 -2.9 26.8
06:30 1026 30.3 855 25.25 -1.2 29.9 88 -2.9 26.8
06:35 1026 30.3 855 25.25 -1.3 29.7 89 -2.9 26.8
06:40 1026 30.3 855 25.25 -1.2 29.8 89 -2.8 26.9
06:45 1026 30.3 855 25.25 -1.1 30 88 -2.9 26.7
06:50 1026 30.3 855 25.25 -1.1 30.1 87 -3 26.6
06:55 1026 30.3 855 25.25 -1.1 30.1 86 -3.1 26.5
07:00 1026 30.3 855 25.25 -0.7 30.8 85 -3 26.7
07:05 1026 30.3 855 25.25 -0.2 31.6 82 -2.9 26.8
07:10 1026 30.3 855 25.25 0.2 32.4 80 -2.8 26.9
07:15 1026 30.3 855 25.25 0.7 33.2 77 -2.8 26.9
07:20 1026 30.3 855 25.25 1 33.8 75 -2.9 26.7
07:25 1026 30.3 855 25.25 1.3 34.3 73 -3 26.5
07:30 1026 30.3 855 25.25 1.5 34.7 73 -2.9 26.8
07:35 1026 30.3 855 25.25 1.8 35.3 69 -3.3 26
07:40 1026 30.3 855 25.25 1.8 35.3 67 -3.7 25.4
07:45 1026 30.3 855 25.25 1.6 34.8 66 -4.2 24.5
07:50 1026 30.3 855 25.25 1.4 34.4 65 -4.5 23.9
07:55 1026 30.3 855 25.25 1.2 34.2 65 -4.7 23.6
08:00 1026 30.3 855 25.25 1.5 34.6 64 -4.6 23.7
08:05 1026 30.3 855 25.25 1.8 35.2 62 -4.7 23.5
08:10 1026 30.3 855 25.25 2.6 36.7 60 -4.5 24
08:15 1026 30.3 855 25.25 2.9 37.2 59 -4.3 24.3
08:20 1026 30.3 855 25.25 3.4 38.1 57 -4.3 24.3
08:25 1026 30.3 855 25.25 3.6 38.5 62 -3 26.5
08:30 1026 30.3 855 25.25 3.5 38.3 66 -2.3 27.8
08:35 1026 30.3 855 25.25 2.9 37.2 66 -2.8 27
08:40 1026 30.3 855 25.25 2.6 36.7 66 -3.1 26.4
08:45 1026 30.3 855 25.25 2.9 37.2 62 -3.6 25.5
08:50 1026 30.3 855 25.25 3 37.4 60 -4 24.9
08:55 1026 30.3 855 25.25 3.5 38.3 59 -3.8 25.1
09:00 1026 30.3 855 25.25 4.1 39.3 55 -4.1 24.6
09:05 1026 30.3 855 25.25 4.5 40.2 56 -3.5 25.7
09:10 1026 30.3 855 25.25 4.9 40.7 56 -3.3 26.1
09:15 1026 30.3 855 25.25 5.3 41.6 52 -3.8 25.2
09:20 1026 30.3 855 25.25 5.3 41.6 48 -4.7 23.5
09:25 1026 30.3 855 25.25 5 41 54 -3.6 25.5
09:30 1026 30.3 855 25.25 5.3 41.5 49 -4.5 24
09:35 1026 30.3 855 25.25 5.7 42.2 46 -5 23
09:40 1025 30.27 855 25.25 5.5 41.9 44 -5.7 21.7
09:45 1025 30.27 855 25.25 5.3 41.6 44 -5.9 21.4
09:50 1026 30.3 855 25.25 5.3 41.5 44 -6 21.1
09:55 1026 30.3 855 25.25 5.7 42.3 42 -6.2 20.9
10:00 1026 30.3 855 25.25 6.3 43.3 44 -5.2 22.7
10:05 1026 30.3 855 25.25 6.6 43.9 43 -5 22.9
10:10 1026 30.3 855 25.25 6.6 44 41 -5.6 21.9
10:15 1026 30.3 855 25.25 7.4 45.4 39 -5.8 21.6
10:20 1025 30.27 855 25.25 6.5 43.7 40 -6.1 21
10:25 1025 30.27 855 25.25 6.7 44.1 38 -6.7 20
10:30 1025 30.27 855 25.25 7.3 45.2 37 -6.4 20.5
10:35 1025 30.27 855 25.25 8 46.5 37 -5.8 21.6
10:40 1025 30.27 854 25.22 8 46.4 37 -5.7 21.8
10:45 1025 30.27 854 25.22 8 46.4 38 -5.5 22.1
10:50 1025 30.27 855 25.25 8.1 46.6 35 -6.4 20.4
10:55 1025 30.27 855 25.25 7.6 45.6 37 -6 21.1
11:00 1025 30.27 855 25.25 8.1 46.6 37 -5.7 21.7
11:05 1025 30.27 855 25.25 8.5 47.3 34 -6.3 20.7
11:10 1025 30.27 855 25.25 8.6 47.5 34 -6.2 20.8
11:15 1025 30.27 854 25.22 8.6 47.4 35 -6.2 20.8
11:20 1025 30.27 854 25.22 8.9 48 33 -6.5 20.4
11:25 1025 30.27 854 25.22 9.4 48.9 31 -6.8 19.7
11:30 1025 30.27 854 25.22 8.3 47 32 -7.6 18.4
11:35 1025 30.27 854 25.22 8.5 47.3 33 -6.8 19.8
11:40 1025 30.27 854 25.22 8.6 47.6 36 -5.7 21.7
11:45 1025 30.27 854 25.22 8.5 47.3 34 -6.3 20.6
11:50 1025 30.27 854 25.22 9.4 49 31 -6.7 20
11:55 1025 30.27 854 25.22 10.1 50.2 31 -6.3 20.6
12:00 1025 30.27 854 25.22 10.2 50.4 28 -7.4 18.6
12:05 1025 30.27 854 25.22 10.1 50.2 29 -7.2 19
12:10 1025 30.27 854 25.22 9.9 49.8 27 -8 17.6
12:15 1025 30.27 854 25.22 9.9 49.7 27 -8.2 17.3
12:20 1025 30.27 854 25.22 10.2 50.4 26 -8.4 16.9
12:25 1025 30.27 854 25.22 10.1 50.1 25 -9 15.8
12:30 1025 30.27 854 25.22 9.9 49.8 25 -9.4 15.1
12:35 1025 30.27 854 25.22 10 49.9 23 -10 14
12:40 1025 30.27 854 25.22 10.5 50.8 23 -10 14
12:45 1025 30.27 854 25.22 10.5 50.8 24 -9.2 15.4
12:50 1025 30.27 854 25.22 10.7 51.2 22 -10.1 13.9
12:55 1025 30.27 854 25.22 10.5 50.9 23 -9.7 14.6
13:00 1025 30.27 854 25.22 10.2 50.3 24 -9.6 14.7
13:05 1025 30.27 854 25.22 10.4 50.6 23 -10.1 13.8
13:10 1025 30.27 854 25.22 10.4 50.6 22 -10.5 13.2
13:15 1024 30.24 854 25.22 10.5 50.9 22 -10.1 13.8
13:20 1024 30.24 854 25.22 9.9 49.9 23 -10 14
13:25 1024 30.24 853 25.19 10.1 50.2 23 -10.2 13.7
13:30 1024 30.24 853 25.19 11 51.9 21 -10.2 13.7
13:35 1024 30.24 853 25.19 11.6 52.8 21 -10.2 13.6
13:40 1024 30.24 853 25.19 11.4 52.6 21 -9.9 14.2
13:45 1024 30.24 853 25.19 11.3 52.3 20 -10.8 12.6
13:50 1024 30.24 853 25.19 11.1 51.9 21 -10.3 13.4
13:55 1024 30.24 853 25.19 11.2 52.2 20 -10.9 12.4
14:00 1024 30.24 853 25.19 11 51.9 21 -10.7 12.7
14:05 1024 30.24 853 25.19 10.5 50.9 20 -11.4 11.6
14:10 1024 30.24 853 25.19 11.6 52.9 20 -10.5 13.2
14:15 1024 30.24 853 25.19 11.2 52.2 21 -10.4 13.3
14:20 1024 30.24 853 25.19 11 51.7 21 -10.8 12.5
14:25 1024 30.24 853 25.19 10.1 50.3 22 -10.8 12.6
14:30 1024 30.24 853 25.19 10.4 50.8 20 -11.7 11
14:35 1024 30.24 853 25.19 11 51.7 20 -10.9 12.4
14:40 1024 30.24 853 25.19 11.7 53 19 -11.4 11.4
14:45 1024 30.24 853 25.19 11.9 53.4 20 -10.4 13.3
14:50 1024 30.24 853 25.19 12.2 54 20 -10.3 13.5
14:55 1024 30.24 853 25.19 12 53.7 20 -10.2 13.7
15:00 1024 30.24 853 25.19 11.6 53 20 -10.3 13.4
15:05 1024 30.24 853 25.19 11.9 53.5 20 -10.4 13.3
15:10 1024 30.24 853 25.19 12.1 53.8 20 -10.1 13.9
15:15 1024 30.24 853 25.19 12 53.5 20 -10.4 13.2
15:20 1024 30.24 853 25.19 11.7 53 20 -10.4 13.4
15:25 1024 30.24 853 25.19 11.7 53 21 -10.1 13.9
15:30 1024 30.24 853 25.19 11.3 52.4 21 -10.4 13.3
15:35 1024 30.24 853 25.19 11.5 52.8 21 -9.8 14.3
15:40 1024 30.24 853 25.19 11.7 53 21 -9.8 14.4
15:45 1024 30.24 853 25.19 11.5 52.7 21 -9.8 14.3
15:50 1024 30.24 853 25.19 11.4 52.6 22 -9.5 14.8
15:55 1024 30.24 853 25.19 11.3 52.4 22 -9.6 14.7
16:00 1024 30.24 853 25.19 11.4 52.5 22 -9.7 14.6
16:05 1024 30.24 853 25.19 11.7 53 21 -9.7 14.6
16:10 1024 30.24 853 25.19 11.8 53.2 21 -9.6 14.7
16:15 1024 30.24 853 25.19 11.5 52.7 21 -9.9 14.3
16:20 1024 30.24 853 25.19 11.6 53 22 -9.4 15.1
16:25 1024 30.24 853 25.19 11.5 52.7 22 -9.4 15
16:30 1024 30.24 853 25.19 11.1 51.9 22 -9.7 14.5
16:35 1024 30.24 853 25.19 11.3 52.4 22 -9.6 14.7
16:40 1024 30.24 853 25.19 11.2 52.2 23 -9.2 15.4
16:45 1024 30.24 853 25.19 11.2 52.1 23 -9.4 15.2
16:50 1024 30.24 853 25.19 11.1 52 23 -9.5 14.9
16:55 1024 30.24 853 25.19 11 51.8 23 -9.3 15.3
17:00 1024 30.24 853 25.19 10.9 51.5 24 -9.1 15.7
17:05 1024 30.24 853 25.19 10.8 51.5 23 -9.3 15.2
17:10 1024 30.24 853 25.19 10.8 51.5 23 -9.4 15.1
17:15 1024 30.24 853 25.19 10.7 51.3 23 -9.5 15
17:20 1024 30.24 853 25.19 10.5 50.9 24 -9.2 15.4
17:25 1024 30.24 853 25.19 10.6 51 24 -8.9 15.9
17:30 1024 30.24 853 25.19 10.4 50.8 25 -8.8 16.1
17:35 1024 30.24 853 25.19 10.1 50.1 26 -8.7 16.3
17:40 1024 30.24 853 25.19 9.7 49.4 26 -8.9 16
17:45 1024 30.24 853 25.19 9.4 48.9 27 -8.6 16.5
17:50 1024 30.24 853 25.19 9.2 48.5 27 -8.9 16
17:55 1024 30.24 853 25.19 9 48.1 28 -8.7 16.3
18:00 1024 30.24 853 25.19 8.8 47.9 28 -8.5 16.7
18:05 1024 30.24 853 25.19 8.7 47.7 30 -7.8 18
18:10 1024 30.24 853 25.19 7.8 46 35 -6.7 19.9
18:15 1024 30.24 853 25.19 6.9 44.3 38 -6.6 20.1
18:20 1024 30.24 853 25.19 6.2 43.1 41 -6.1 21
18:25 1024 30.24 853 25.19 5.8 42.4 43 -5.9 21.3
18:30 1024 30.24 853 25.19 5.3 41.5 45 -5.7 21.8
18:35 1024 30.24 853 25.19 4.9 40.9 47 -5.6 22
18:40 1024 30.24 853 25.19 4.8 40.6 47 -5.6 21.9
18:45 1024 30.24 853 25.19 4.8 40.6 48 -5.4 22.3
18:50 1024 30.24 853 25.19 4.7 40.5 48 -5.3 22.4
18:55 1024 30.24 853 25.19 4.6 40.3 49 -5.3 22.5
19:00 1024 30.24 853 25.19 4.3 39.8 49 -5.5 22.2
19:05 1024 30.24 853 25.19 4.3 39.8 49 -5.5 22.1
19:10 1024 30.24 853 25.19 4.4 39.8 49 -5.5 22.1
19:15 1024 30.24 853 25.19 4.3 39.7 49 -5.6 22
19:20 1024 30.24 853 25.19 4.2 39.6 49 -5.6 21.9
19:25 1024 30.24 853 25.19 4 39.2 50 -5.4 22.3
19:30 1024 30.24 853 25.19 3.7 38.6 52 -5.3 22.5
19:35 1024 30.24 853 25.19 3.5 38.2 53 -5.2 22.6
19:40 1024 30.24 853 25.19 3.3 38 51 -5.9 21.4
19:45 1024 30.24 853 25.19 3.5 38.2 49 -6.3 20.6
19:50 1024 30.24 853 25.19 3.6 38.5 47 -6.5 20.2
19:55 1024 30.24 853 25.19 3.9 39.1 46 -6.7 20
20:00 1024 30.24 853 25.19 3.9 39 46 -6.8 19.8
20:05 1024 30.24 853 25.19 3.6 38.4 45 -7.3 18.9
20:10 1024 30.24 853 25.19 3.7 38.6 46 -6.9 19.6
20:15 1024 30.24 853 25.19 3.6 38.5 45 -7.1 19.3
20:20 1024 30.24 853 25.19 3.6 38.4 45 -7.2 19.1
20:25 1024 30.24 853 25.19 3.2 37.8 50 -6.2 20.8
20:30 1024 30.24 853 25.19 2.9 37.2 50 -6.5 20.3
20:35 1024 30.24 853 25.19 2.9 37.2 49 -6.7 19.9
20:40 1024 30.24 853 25.19 3.5 38.3 47 -6.9 19.6
20:45 1024 30.24 853 25.19 3.5 38.4 45 -7.4 18.8
20:50 1024 30.24 853 25.19 4 39.1 42 -7.8 17.9
20:55 1024 30.24 853 25.19 4.5 40.1 41 -7.6 18.2
21:00 1024 30.24 853 25.19 4.6 40.4 44 -6.5 20.2
21:05 1024 30.24 853 25.19 3.8 38.8 43 -7.5 18.5
21:10 1024 30.24 853 25.19 4.1 39.4 43 -7.5 18.6
21:15 1024 30.24 853 25.19 3.7 38.7 45 -7 19.4
21:20 1024 30.24 853 25.19 3.2 37.7 47 -7.1 19.2
21:25 1024 30.24 853 25.19 3.3 37.9 47 -7 19.3
21:30 1024 30.24 853 25.19 3.4 38 48 -6.5 20.3
21:35 1024 30.24 853 25.19 3.3 38 49 -6.5 20.3
21:40 1024 30.24 853 25.19 3.5 38.3 49 -6.3 20.7
21:45 1024 30.24 853 25.19 3.4 38.2 50 -6.1 21
21:50 1024 30.24 853 25.19 3.2 37.8 51 -6 21.2
21:55 1024 30.24 853 25.19 3 37.4 52 -5.9 21.4
22:00 1024 30.24 853 25.19 2.8 37 53 -5.9 21.4
22:05 1024 30.24 853 25.19 2.7 36.8 53 -5.9 21.5
22:10 1024 30.24 853 25.19 2.6 36.6 54 -5.8 21.5
22:15 1024 30.24 853 25.19 2.5 36.5 54 -6 21.3
22:20 1024 30.24 853 25.19 2.6 36.7 52 -6.3 20.6
22:25 1024 30.24 853 25.19 2.7 36.8 51 -6.5 20.3
22:30 1024 30.24 853 25.19 2.7 36.8 49 -6.9 19.5
22:35 1024 30.24 853 25.19 2.7 36.9 49 -7 19.4
22:40 1024 30.24 853 25.19 2.7 36.8 49 -7.1 19.3
22:45 1024 30.24 853 25.19 2.6 36.7 50 -6.7 19.9
22:50 1024 30.24 853 25.19 2.5 36.6 49 -7 19.4
22:55 1024 30.24 853 25.19 2.8 37 50 -6.5 20.2
23:00 1024 30.24 853 25.19 3 37.4 50 -6.5 20.3
23:05 1024 30.24 853 25.19 3 37.4 50 -6.5 20.3
23:10 1024 30.24 853 25.19 3 37.4 49 -6.8 19.8
23:15 1024 30.24 853 25.19 2.9 37.3 50 -6.5 20.3
23:20 1024 30.24 853 25.19 2.8 37 51 -6.4 20.5
23:25 1024 30.24 853 25.19 2.4 36.3 53 -6.2 20.8
23:30 1024 30.24 853 25.19 2.2 36 54 -6.2 20.9
23:35 1024 30.24 853 25.19 2.1 35.8 53 -6.4 20.5
23:40 1024 30.24 853 25.19 2 35.6 55 -6 21.3
23:45 1024 30.24 853 25.19 2 35.7 54 -6.2 20.9
23:50 1024 30.24 853 25.19 2.3 36.2 55 -5.8 21.5
23:55 1024 30.24 853 25.19 1.7 35.1 57 -6 21.1
24:00 1024 30.24 853 25.19 1.9 35.4 48 -8 17.6